Time;durP1;ratioP1;P1;durP2;ratioP2;P2;SDS_P1;SDS_P2;PMS_P1;PMS_P2;Temp;Humidity;BMP_temperature;BMP_pressure;BME280_temperature;BME280_humidity;BME280_pressure;Samples;Min_cycle;Max_cycle;Signal;HPM_P1;HPM_P2
2023/12/23 00:01:26;;;;;;;895.15;820.88;;;4.50;99.90;;;;;;5058688;28;20036;-81
2023/12/23 00:03:52;;;;;;;968.15;886.97;;;4.50;99.90;;;;;;5059520;28;20036;-81
2023/12/23 00:06:17;;;;;;;977.47;894.42;;;4.60;99.90;;;;;;5059928;28;20032;-81
2023/12/23 00:08:46;;;;;;;926.95;849.38;;;4.60;99.90;;;;;;5054922;28;20463;-81
2023/12/23 00:11:12;;;;;;;1008.10;920.67;;;4.70;99.90;;;;;;5058840;28;20039;-81
2023/12/23 00:13:37;;;;;;;1046.75;944.10;;;4.70;99.90;;;;;;5075571;28;20032;-81
2023/12/23 00:16:03;;;;;;;973.55;889.00;;;4.70;99.90;;;;;;5058533;28;20058;-81
2023/12/23 00:18:29;;;;;;;1016.55;929.08;;;4.70;99.90;;;;;;5058811;28;20039;-81
2023/12/23 00:20:54;;;;;;;1013.15;922.80;;;4.80;99.90;;;;;;5075469;28;20138;-81
2023/12/23 00:23:20;;;;;;;989.47;901.35;;;4.80;99.90;;;;;;5058420;28;20041;-81
2023/12/23 00:25:45;;;;;;;981.70;897.00;;;4.70;99.90;;;;;;5075052;28;20134;-81
2023/12/23 00:28:11;;;;;;;955.53;873.35;;;4.70;99.90;;;;;;5058757;28;20396;-80
2023/12/23 00:30:37;;;;;;;981.38;900.55;;;5.10;99.90;;;;;;5058463;28;20401;-82
2023/12/23 00:33:05;;;;;;;985.38;903.33;;;4.50;99.90;;;;;;5057714;28;20040;-81
2023/12/23 00:35:30;;;;;;;950.83;866.72;;;5.00;99.90;;;;;;5074657;28;20043;-81
2023/12/23 00:37:56;;;;;;;957.28;873.60;;;4.60;99.90;;;;;;5059309;28;20040;-81
2023/12/23 00:40:21;;;;;;;950.38;868.55;;;4.50;99.90;;;;;;5057439;28;20456;-81
2023/12/23 00:42:47;;;;;;;954.28;872.35;;;4.50;99.90;;;;;;5074519;28;20040;-81
2023/12/23 00:45:13;;;;;;;949.67;868.38;;;4.50;99.90;;;;;;5076034;28;20067;-81
2023/12/23 00:47:39;;;;;;;971.85;883.47;;;4.50;99.90;;;;;;5059457;28;20040;-81
2023/12/23 00:50:05;;;;;;;979.58;894.10;;;4.50;99.90;;;;;;5058065;28;20040;-81
2023/12/23 00:52:31;;;;;;;979.20;892.28;;;4.50;99.90;;;;;;5059467;28;20554;-81
2023/12/23 00:54:57;;;;;;;1009.83;918.05;;;5.10;99.90;;;;;;5060246;28;20032;-81
2023/12/23 00:57:23;;;;;;;989.15;899.40;;;4.60;99.90;;;;;;5060363;28;20059;-81
2023/12/23 00:59:48;;;;;;;1036.32;936.08;;;5.70;99.90;;;;;;5059929;28;20092;-81
2023/12/23 01:02:17;;;;;;;1032.85;933.95;;;4.60;99.90;;;;;;5058395;28;20033;-81
2023/12/23 01:04:43;;;;;;;1044.45;940.95;;;4.60;99.90;;;;;;5074580;28;20485;-81
2023/12/23 01:07:10;;;;;;;1042.40;941.58;;;4.70;99.90;;;;;;5058080;28;20477;-81
2023/12/23 01:09:35;;;;;;;1054.55;949.50;;;4.70;99.90;;;;;;5057302;28;20033;-81
2023/12/23 01:12:01;;;;;;;1063.68;957.72;;;4.70;99.90;;;;;;5058223;28;20043;-81
2023/12/23 01:14:26;;;;;;;1072.47;961.03;;;4.80;99.90;;;;;;5057239;28;20108;-81
2023/12/23 01:16:52;;;;;;;1036.63;936.33;;;4.80;99.90;;;;;;5056251;28;20043;-81
2023/12/23 01:19:18;;;;;;;1036.47;935.60;;;4.80;99.90;;;;;;5057160;28;20044;-82
2023/12/23 01:21:44;;;;;;;1025.88;929.60;;;4.80;99.90;;;;;;5058202;28;20071;-81
2023/12/23 01:24:09;;;;;;;1031.97;930.28;;;4.90;99.90;;;;;;5058252;28;20036;-82
2023/12/23 01:26:35;;;;;;;1019.42;921.80;;;4.90;99.90;;;;;;5057048;28;20421;-81
2023/12/23 01:29:00;;;;;;;1054.47;950.42;;;4.90;99.90;;;;;;5073809;28;20123;-81
2023/12/23 01:31:27;;;;;;;1025.50;929.53;;;4.90;99.90;;;;;;5057581;28;20043;-81
2023/12/23 01:33:53;;;;;;;1004.83;909.00;;;5.00;99.90;;;;;;5058628;28;20350;-81
2023/12/23 01:36:18;;;;;;;1042.57;940.00;;;5.00;99.90;;;;;;5057023;28;20056;-81
2023/12/23 01:38:44;;;;;;;1051.40;947.13;;;5.00;99.90;;;;;;5057102;28;20513;-81
2023/12/23 01:41:10;;;;;;;1053.78;948.05;;;5.10;99.90;;;;;;5057803;28;20045;-81
2023/12/23 01:43:35;;;;;;;1042.47;941.47;;;5.10;99.90;;;;;;5057453;28;20594;-81
2023/12/23 01:46:02;;;;;;;1034.47;934.95;;;5.10;99.90;;;;;;5058229;28;20040;-81
2023/12/23 01:48:29;;;;;;;1072.57;962.45;;;5.10;99.90;;;;;;5057341;28;20032;-81
2023/12/23 01:50:56;;;;;;;1067.93;961.42;;;6.10;99.90;;;;;;5056358;28;20041;-81
2023/12/23 01:53:24;;;;;;;1060.80;954.53;;;5.20;99.90;;;;;;5060491;28;20025;-81
2023/12/23 01:55:50;;;;;;;1074.63;965.65;;;5.20;99.90;;;;;;5061260;28;20040;-81
2023/12/23 01:58:16;;;;;;;1067.97;962.13;;;5.20;99.90;;;;;;5061892;28;20577;-81
2023/12/23 02:00:42;;;;;;;1043.75;940.40;;;5.30;99.90;;;;;;5061568;28;20051;-81
2023/12/23 02:03:08;;;;;;;1078.45;970.53;;;5.30;99.90;;;;;;5079023;28;20047;-81
2023/12/23 02:05:33;;;;;;;1058.50;953.85;;;5.90;99.90;;;;;;5061633;28;20485;-81
2023/12/23 02:07:59;;;;;;;1068.05;958.47;;;5.40;99.90;;;;;;5061538;28;20036;-81
2023/12/23 02:10:26;;;;;;;1078.05;965.10;;;5.40;99.90;;;;;;5060693;28;20531;-81
2023/12/23 02:13:21;;;;;;;1083.35;967.03;;;5.40;99.90;;;;;;5061110;28;20063;-81
2023/12/23 02:15:48;;;;;;;1062.38;957.63;;;5.40;99.90;;;;;;5056174;28;20465;-81
2023/12/23 02:18:14;;;;;;;1076.03;964.92;;;5.40;99.90;;;;;;5060661;28;20514;-81
2023/12/23 02:20:40;;;;;;;1090.65;976.40;;;5.80;99.90;;;;;;5062312;28;20041;-82
2023/12/23 02:23:05;;;;;;;1096.60;984.30;;;5.50;99.90;;;;;;5062175;28;20052;-81
2023/12/23 02:25:32;;;;;;;1059.25;952.00;;;5.50;99.90;;;;;;5061466;28;20059;-81
2023/12/23 02:28:03;;;;;;;1073.40;965.38;;;5.50;99.90;;;;;;5077684;28;20052;-81
2023/12/23 02:30:30;;;;;;;1094.20;979.25;;;6.30;99.90;;;;;;5076799;28;20120;-81
2023/12/23 02:32:56;;;;;;;1079.63;971.17;;;5.50;99.90;;;;;;5060673;28;20064;-81
2023/12/23 02:35:27;;;;;;;1073.78;964.83;;;5.50;99.90;;;;;;5060334;28;20044;-81
2023/12/23 02:37:54;;;;;;;1074.63;969.40;;;5.50;99.90;;;;;;5077412;28;20051;-81
2023/12/23 02:40:20;;;;;;;1058.18;955.05;;;5.50;99.90;;;;;;5059726;28;20060;-81
2023/12/23 02:42:46;;;;;;;1099.05;989.08;;;5.20;99.90;;;;;;5060678;28;20039;-81
2023/12/23 02:45:12;;;;;;;1089.65;979.40;;;5.50;99.90;;;;;;5060583;28;20041;-81
2023/12/23 02:47:37;;;;;;;1068.78;962.63;;;5.50;99.90;;;;;;5076126;28;20040;-81
2023/12/23 02:50:03;;;;;;;1063.53;959.40;;;5.50;99.90;;;;;;5060349;28;20405;-81
2023/12/23 02:52:29;;;;;;;1082.18;975.83;;;5.50;99.90;;;;;;5061242;28;20489;-81
2023/12/23 02:54:55;;;;;;;1083.13;969.38;;;5.40;99.90;;;;;;5077940;28;20062;-81
2023/12/23 02:57:21;;;;;;;1053.07;952.95;;;5.40;99.90;;;;;;5061440;28;20388;-81
2023/12/23 02:59:47;;;;;;;1028.20;929.05;;;5.40;99.90;;;;;;5062311;28;20063;-81
2023/12/23 03:02:12;;;;;;;1044.28;946.58;;;5.40;99.90;;;;;;5077949;28;20044;-81
2023/12/23 03:04:39;;;;;;;1030.15;936.58;;;5.40;99.90;;;;;;5060931;28;20492;-81
2023/12/23 03:07:05;;;;;;;1019.20;920.63;;;5.40;99.90;;;;;;5077243;28;20056;-81
2023/12/23 03:09:31;;;;;;;1012.45;920.80;;;5.80;99.90;;;;;;5059736;28;20048;-81
2023/12/23 03:11:57;;;;;;;1034.40;933.22;;;5.40;99.90;;;;;;5060134;28;20158;-81
2023/12/23 03:14:22;;;;;;;1018.85;923.30;;;5.30;99.90;;;;;;5059511;28;20032;-81
2023/12/23 03:16:48;;;;;;;1034.45;929.75;;;5.30;99.90;;;;;;5059840;28;20112;-82
2023/12/23 03:19:13;;;;;;;1023.83;927.08;;;5.30;99.90;;;;;;5060105;28;20037;-81
2023/12/23 03:21:43;;;;;;;1048.28;943.80;;;5.30;99.90;;;;;;5076796;28;20102;-81
2023/12/23 03:24:09;;;;;;;1011.85;918.50;;;5.30;99.90;;;;;;5073222;28;20057;-81
2023/12/23 03:26:35;;;;;;;993.08;903.08;;;5.30;99.90;;;;;;5058983;28;20044;-81
2023/12/23 03:29:00;;;;;;;981.33;892.58;;;5.30;99.90;;;;;;5061600;28;20139;-81
2023/12/23 03:31:26;;;;;;;1066.38;944.72;;;5.30;99.90;;;;;;5060399;28;20392;-81
2023/12/23 03:33:51;;;;;;;1011.28;910.75;;;5.30;99.90;;;;;;5076632;28;20036;-81
2023/12/23 03:36:18;;;;;;;975.92;887.92;;;5.20;99.90;;;;;;5060256;28;20048;-81
2023/12/23 03:38:43;;;;;;;962.78;879.30;;;5.60;99.90;;;;;;5076934;28;20093;-81
2023/12/23 03:41:12;;;;;;;1042.88;931.75;;;5.20;99.90;;;;;;5060905;28;20037;-81
2023/12/23 03:43:38;;;;;;;971.63;884.97;;;5.20;99.90;;;;;;5077902;28;20036;-81
2023/12/23 03:46:04;;;;;;;1027.72;919.83;;;6.30;99.90;;;;;;5059185;28;20246;-81
2023/12/23 03:48:30;;;;;;;988.00;893.22;;;5.20;99.90;;;;;;5076331;28;20127;-81
2023/12/23 03:50:55;;;;;;;1007.47;905.35;;;5.20;99.90;;;;;;5060482;28;20028;-81
2023/12/23 03:53:21;;;;;;;986.22;890.72;;;5.20;99.90;;;;;;5076721;28;20036;-81
2023/12/23 03:55:46;;;;;;;971.55;882.25;;;5.20;99.90;;;;;;5075922;28;20319;-81
2023/12/23 03:58:12;;;;;;;1000.15;905.22;;;5.20;99.90;;;;;;5059847;28;20398;-81
2023/12/23 04:00:38;;;;;;;978.88;887.13;;;5.20;99.90;;;;;;5075023;28;20056;-80
2023/12/23 04:03:03;;;;;;;983.70;890.80;;;6.30;99.90;;;;;;5076296;28;20586;-81
2023/12/23 04:05:29;;;;;;;978.13;890.47;;;5.20;99.90;;;;;;5059105;28;20044;-81
2023/12/23 04:07:55;;;;;;;956.55;876.63;;;5.20;99.90;;;;;;5058649;28;20040;-81
2023/12/23 04:10:20;;;;;;;950.90;870.88;;;5.20;99.90;;;;;;5058914;28;20060;-81
2023/12/23 04:12:46;;;;;;;1022.33;919.72;;;5.20;99.90;;;;;;5076405;28;20381;-81
2023/12/23 04:15:12;;;;;;;950.78;872.38;;;5.20;99.90;;;;;;5075896;28;20043;-81
2023/12/23 04:17:41;;;;;;;1005.75;908.25;;;4.70;99.90;;;;;;5074523;28;20047;-81
2023/12/23 04:20:07;;;;;;;1078.07;950.20;;;5.20;99.90;;;;;;5059934;28;20048;-81
2023/12/23 04:22:34;;;;;;;992.58;898.17;;;5.20;99.90;;;;;;5059309;28;20175;-81
2023/12/23 04:25:00;;;;;;;1020.30;921.30;;;6.00;99.90;;;;;;5075824;28;20068;-81
2023/12/23 04:27:25;;;;;;;974.47;886.78;;;5.20;99.90;;;;;;5076023;28;20110;-81
2023/12/23 04:29:51;;;;;;;966.83;881.47;;;5.20;99.90;;;;;;5059151;28;20037;-80
2023/12/23 04:32:17;;;;;;;994.72;901.97;;;5.20;99.90;;;;;;5059597;28;20112;-81
2023/12/23 04:34:42;;;;;;;968.50;883.65;;;5.20;99.90;;;;;;5076081;28;20039;-81
2023/12/23 04:37:08;;;;;;;966.22;881.95;;;5.20;99.90;;;;;;5059108;28;20092;-81
2023/12/23 04:39:33;;;;;;;947.78;868.47;;;5.20;99.90;;;;;;5059740;28;20064;-81
2023/12/23 04:41:59;;;;;;;982.97;893.22;;;5.30;99.90;;;;;;5059557;28;20488;-81
2023/12/23 04:44:25;;;;;;;963.05;878.78;;;5.20;99.90;;;;;;5058533;28;20032;-81
2023/12/23 04:46:51;;;;;;;994.08;897.40;;;5.90;99.90;;;;;;5058730;28;20382;-81
2023/12/23 04:49:17;;;;;;;968.03;883.67;;;5.20;99.90;;;;;;5058775;28;20064;-81
2023/12/23 04:51:45;;;;;;;951.80;871.47;;;5.80;99.90;;;;;;5059150;28;20055;-81
2023/12/23 04:54:14;;;;;;;984.40;895.28;;;5.60;99.90;;;;;;5058767;28;20024;-81
2023/12/23 04:56:40;;;;;;;979.50;892.92;;;5.20;99.90;;;;;;5058355;28;20040;-81
2023/12/23 04:59:06;;;;;;;972.88;888.20;;;5.20;99.90;;;;;;5075955;28;20041;-81
2023/12/23 05:01:32;;;;;;;985.47;893.83;;;5.70;99.90;;;;;;5060259;28;20124;-81
2023/12/23 05:03:58;;;;;;;938.85;859.42;;;5.20;99.90;;;;;;5061611;28;20072;-81
2023/12/23 05:06:23;;;;;;;943.47;863.78;;;5.20;99.90;;;;;;5062075;28;20040;-81
2023/12/23 05:08:49;;;;;;;1033.15;923.70;;;5.20;99.90;;;;;;5059856;28;20055;-81
2023/12/23 05:11:15;;;;;;;951.63;869.83;;;5.20;99.90;;;;;;5060940;28;20115;-81
2023/12/23 05:13:40;;;;;;;964.53;883.13;;;6.40;99.90;;;;;;5058978;28;20029;-81
2023/12/23 05:16:06;;;;;;;1041.68;935.10;;;5.10;99.90;;;;;;5075527;28;20481;-81
2023/12/23 05:18:32;;;;;;;975.05;888.08;;;5.40;99.90;;;;;;5058294;28;20225;-81
2023/12/23 05:20:57;;;;;;;979.50;889.20;;;5.20;99.90;;;;;;5059605;28;20573;-81
2023/12/23 05:23:23;;;;;;;988.40;896.13;;;5.20;99.90;;;;;;5075685;28;20327;-81
2023/12/23 05:25:54;;;;;;;950.30;870.15;;;5.20;99.90;;;;;;5075019;28;20053;-81
2023/12/23 05:28:20;;;;;;;975.13;887.80;;;5.10;99.90;;;;;;5058182;28;20102;-81
2023/12/23 05:30:46;;;;;;;984.10;892.35;;;5.90;99.90;;;;;;5059269;28;20040;-81
2023/12/23 05:33:11;;;;;;;1004.67;907.47;;;5.10;99.90;;;;;;5058937;28;20043;-81
2023/12/23 05:35:37;;;;;;;1002.05;904.80;;;5.70;99.90;;;;;;5058215;28;20437;-81
2023/12/23 05:38:03;;;;;;;999.55;905.10;;;5.20;99.90;;;;;;5057719;28;20032;-81
2023/12/23 05:40:28;;;;;;;1023.78;921.90;;;5.20;99.90;;;;;;5074306;28;20067;-81
2023/12/23 05:42:54;;;;;;;957.03;876.45;;;5.20;99.90;;;;;;5058976;28;20040;-81
2023/12/23 05:45:19;;;;;;;992.50;896.38;;;5.20;99.90;;;;;;5058577;28;20041;-81
2023/12/23 05:47:45;;;;;;;991.92;901.30;;;5.20;99.90;;;;;;5075600;28;20039;-81
2023/12/23 05:50:11;;;;;;;974.97;888.90;;;5.20;99.90;;;;;;5075119;28;20044;-81
2023/12/23 05:52:37;;;;;;;984.72;894.67;;;5.20;99.90;;;;;;5075533;28;20037;-81
2023/12/23 05:55:02;;;;;;;971.60;884.78;;;5.10;99.90;;;;;;5057634;28;20024;-81
2023/12/23 05:57:28;;;;;;;978.47;889.78;;;5.20;99.90;;;;;;5058208;28;20404;-81
2023/12/23 05:59:54;;;;;;;981.00;891.72;;;5.30;99.90;;;;;;5058101;28;20072;-80
2023/12/23 06:02:20;;;;;;;957.80;875.88;;;5.60;99.90;;;;;;5057127;28;20070;-81
2023/12/23 06:04:46;;;;;;;1016.42;917.45;;;6.30;99.90;;;;;;5058696;28;20127;-81
2023/12/23 06:07:12;;;;;;;975.40;883.38;;;6.20;99.90;;;;;;5074681;28;20068;-81
2023/12/23 06:09:38;;;;;;;973.10;887.42;;;5.20;99.90;;;;;;5058005;28;20044;-81
2023/12/23 06:12:03;;;;;;;1014.75;914.67;;;5.10;99.90;;;;;;5058239;28;20033;-81
2023/12/23 06:14:29;;;;;;;980.35;890.22;;;5.10;99.90;;;;;;5058600;28;20126;-83
2023/12/23 06:16:55;;;;;;;979.50;888.53;;;5.10;99.90;;;;;;5058873;28;20067;-81
2023/12/23 06:19:21;;;;;;;983.83;897.67;;;5.70;99.90;;;;;;5060961;28;20041;-81
2023/12/23 06:21:46;;;;;;;1014.13;911.20;;;5.60;99.90;;;;;;5080681;28;20413;-81
2023/12/23 06:24:15;;;;;;;986.03;892.50;;;5.00;99.90;;;;;;5062744;28;20110;-81
2023/12/23 06:26:41;;;;;;;934.33;853.65;;;5.60;99.90;;;;;;5064251;28;20102;-81
2023/12/23 06:29:07;;;;;;;946.80;865.78;;;5.30;99.90;;;;;;5080473;28;20036;-81
2023/12/23 06:31:33;;;;;;;990.88;896.20;;;5.00;99.90;;;;;;5080837;28;20032;-81
2023/12/23 06:33:59;;;;;;;936.22;857.28;;;5.00;99.90;;;;;;5062542;28;20032;-81
2023/12/23 06:36:25;;;;;;;975.38;887.63;;;4.90;99.90;;;;;;5062584;28;20495;-81
2023/12/23 06:38:50;;;;;;;1008.92;909.17;;;5.00;99.90;;;;;;5064178;28;20032;-81
2023/12/23 06:41:16;;;;;;;968.72;880.15;;;5.00;99.90;;;;;;5083376;28;20048;-81
2023/12/23 06:43:41;;;;;;;938.35;860.63;;;5.00;99.90;;;;;;5066172;28;20033;-81
2023/12/23 06:46:10;;;;;;;985.70;894.40;;;5.00;99.90;;;;;;5066271;28;20459;-81
2023/12/23 06:48:36;;;;;;;927.63;848.13;;;5.70;99.90;;;;;;5082890;28;20063;-81
2023/12/23 06:51:03;;;;;;;1022.55;919.80;;;5.00;99.90;;;;;;5066750;28;20040;-81
2023/12/23 06:53:29;;;;;;;977.72;888.90;;;4.90;99.90;;;;;;5066874;28;20039;-81
2023/12/23 06:55:54;;;;;;;967.05;880.75;;;4.80;99.90;;;;;;5066489;28;20036;-82
2023/12/23 06:58:22;;;;;;;990.00;895.15;;;5.80;99.90;;;;;;5067086;28;20032;-81
2023/12/23 07:00:48;;;;;;;953.72;868.22;;;5.80;99.90;;;;;;5066632;28;20037;-81
2023/12/23 07:03:14;;;;;;;934.03;853.03;;;5.20;99.90;;;;;;5066736;28;20036;-81
2023/12/23 07:05:40;;;;;;;998.92;900.00;;;5.40;99.90;;;;;;5067059;28;20036;-81
2023/12/23 07:08:06;;;;;;;925.50;848.83;;;4.70;99.90;;;;;;5067354;28;20044;-81
2023/12/23 07:10:31;;;;;;;1020.40;917.47;;;4.80;99.90;;;;;;5085110;28;20083;-81
2023/12/23 07:12:57;;;;;;;971.30;883.22;;;4.70;99.90;;;;;;5066781;28;20440;-81
2023/12/23 07:15:23;;;;;;;977.72;889.47;;;4.70;99.90;;;;;;5069927;28;20397;-81
2023/12/23 07:17:48;;;;;;;976.97;886.50;;;5.70;99.90;;;;;;5084219;28;20037;-81
2023/12/23 07:20:14;;;;;;;974.08;885.65;;;5.10;99.90;;;;;;5066812;28;20071;-81
2023/12/23 07:22:40;;;;;;;973.50;884.78;;;5.90;99.90;;;;;;5083101;28;20032;-81
2023/12/23 07:25:06;;;;;;;953.58;870.63;;;5.70;99.90;;;;;;5082323;28;20067;-81
2023/12/23 07:27:33;;;;;;;940.75;860.47;;;4.70;99.90;;;;;;5083317;28;20050;-81
2023/12/23 07:30:01;;;;;;;959.85;876.33;;;4.70;99.90;;;;;;5063040;28;20061;-79
2023/12/23 07:32:26;;;;;;;936.80;857.10;;;4.70;99.90;;;;;;5063907;28;20127;-81
2023/12/23 07:34:52;;;;;;;973.75;886.45;;;4.70;99.90;;;;;;5065050;28;20064;-81
2023/12/23 07:37:17;;;;;;;968.53;881.10;;;5.30;99.90;;;;;;5065356;28;20107;-81
2023/12/23 07:39:43;;;;;;;986.60;893.22;;;4.60;99.90;;;;;;5081955;28;20054;-81
2023/12/23 07:42:10;;;;;;;964.60;879.08;;;4.70;99.90;;;;;;5081718;28;20080;-81
2023/12/23 07:44:36;;;;;;;1017.80;916.33;;;4.70;99.90;;;;;;5064489;28;20050;-81
2023/12/23 07:47:05;;;;;;;1009.95;911.60;;;4.70;99.90;;;;;;5063388;28;20033;-81
2023/12/23 07:49:32;;;;;;;998.72;904.80;;;4.70;99.90;;;;;;5065363;28;20036;-81
2023/12/23 07:51:57;;;;;;;967.95;884.42;;;5.50;99.90;;;;;;5065359;28;20067;-81
2023/12/23 07:54:23;;;;;;;959.83;875.63;;;4.70;99.90;;;;;;5064350;28;20038;-81
2023/12/23 07:56:49;;;;;;;955.28;875.05;;;5.00;99.90;;;;;;5063556;28;20037;-81
2023/12/23 07:59:14;;;;;;;953.15;873.75;;;4.70;99.90;;;;;;5082934;28;20054;-82
2023/12/23 08:01:46;;;;;;;992.45;898.53;;;4.80;99.90;;;;;;5067040;28;20052;-82
2023/12/23 08:04:14;;;;;;;950.50;870.53;;;4.80;99.90;;;;;;5067077;28;20127;-82
2023/12/23 08:06:40;;;;;;;965.88;882.88;;;5.00;99.90;;;;;;5065517;28;20062;-81
2023/12/23 08:09:06;;;;;;;968.42;882.65;;;6.00;99.90;;;;;;5082815;28;20037;-82
2023/12/23 08:11:32;;;;;;;958.95;874.80;;;4.80;99.90;;;;;;5067401;28;20032;-82
2023/12/23 08:13:57;;;;;;;972.13;884.00;;;5.40;99.90;;;;;;5068159;28;20033;-82
2023/12/23 08:16:23;;;;;;;1002.03;906.20;;;4.80;99.90;;;;;;5067103;28;20044;-82
2023/12/23 08:18:49;;;;;;;931.70;856.03;;;4.70;99.90;;;;;;5083531;28;20460;-82
2023/12/23 08:21:14;;;;;;;922.70;840.58;;;4.80;99.90;;;;;;5067360;28;20060;-82
2023/12/23 08:23:40;;;;;;;965.40;879.80;;;4.80;99.90;;;;;;5064268;28;20032;-82
2023/12/23 08:26:07;;;;;;;957.38;871.35;;;4.80;99.90;;;;;;5062658;28;20428;-83
2023/12/23 08:28:33;;;;;;;979.95;891.00;;;5.80;99.90;;;;;;5067380;28;20883;-81
2023/12/23 08:30:59;;;;;;;985.35;891.60;;;4.70;99.90;;;;;;5083897;28;20241;-82
2023/12/23 08:33:24;;;;;;;965.58;879.17;;;5.60;99.90;;;;;;5067396;28;20052;-81
2023/12/23 08:35:50;;;;;;;978.13;887.85;;;4.80;99.90;;;;;;5067898;28;20039;-82
2023/12/23 08:38:16;;;;;;;963.45;873.55;;;5.80;99.90;;;;;;5084178;28;20052;-83
2023/12/23 08:40:43;;;;;;;946.72;864.97;;;4.80;99.90;;;;;;5068273;28;20059;-84
2023/12/23 08:43:10;;;;;;;977.35;884.42;;;5.20;99.90;;;;;;5067514;28;20032;-83
2023/12/23 08:45:35;;;;;;;939.83;860.55;;;4.50;99.90;;;;;;5066708;28;20066;-82
2023/12/23 08:48:01;;;;;;;932.72;855.08;;;5.10;99.90;;;;;;5067168;28;20103;-83
2023/12/23 08:50:27;;;;;;;976.72;888.05;;;5.30;99.90;;;;;;5083934;28;20062;-83
2023/12/23 08:52:52;;;;;;;941.53;863.75;;;4.60;99.90;;;;;;5066898;28;20104;-83
2023/12/23 08:55:18;;;;;;;1007.90;912.03;;;5.10;99.90;;;;;;5066463;28;20029;-82
2023/12/23 08:57:44;;;;;;;968.67;883.08;;;4.90;99.90;;;;;;5066917;28;20032;-82
2023/12/23 09:00:10;;;;;;;1489.18;880.72;;;4.90;99.90;;;;;;5066665;28;20044;-82
2023/12/23 09:02:35;;;;;;;986.92;896.83;;;4.90;99.90;;;;;;5066095;28;20047;-83
2023/12/23 09:05:01;;;;;;;938.40;860.85;;;6.20;99.90;;;;;;5066533;28;20040;-83
2023/12/23 09:07:28;;;;;;;957.00;875.67;;;4.60;99.90;;;;;;5066622;28;20059;-83
2023/12/23 09:09:54;;;;;;;951.72;873.25;;;4.20;99.90;;;;;;5066897;28;20055;-83
2023/12/23 09:12:19;;;;;;;946.10;864.40;;;5.70;99.90;;;;;;5067163;28;20032;-82
2023/12/23 09:14:51;;;;;;;978.10;889.30;;;5.90;99.90;;;;;;5066931;28;20044;-82
2023/12/23 09:17:17;;;;;;;942.72;860.75;;;5.10;99.90;;;;;;5096031;28;20040;-82
2023/12/23 09:19:42;;;;;;;958.90;872.70;;;6.10;99.90;;;;;;5067152;28;20104;-82
2023/12/23 09:22:08;;;;;;;941.22;858.78;;;5.00;99.90;;;;;;5066781;28;20238;-83
2023/12/23 09:24:37;;;;;;;960.17;875.00;;;5.00;99.90;;;;;;5066368;28;20045;-83
2023/12/23 09:27:03;;;;;;;980.50;887.33;;;5.90;99.90;;;;;;5065499;28;20061;-82
2023/12/23 09:29:29;;;;;;;977.75;885.30;;;5.20;99.90;;;;;;5065557;28;20056;-82
2023/12/23 09:31:55;;;;;;;1007.92;903.65;;;6.20;99.90;;;;;;5065959;28;20036;-83
2023/12/23 09:34:21;;;;;;;987.60;889.42;;;5.50;99.90;;;;;;5066631;28;20415;-82
2023/12/23 09:36:47;;;;;;;939.88;858.95;;;6.40;99.90;;;;;;5064107;28;20064;-79
2023/12/23 09:39:13;;;;;;;951.42;868.90;;;5.90;99.90;;;;;;5065570;28;20037;-82
2023/12/23 09:41:51;;;;;;;982.85;891.70;;;5.80;99.90;;;;;;5065018;28;20036;-82
2023/12/23 09:44:16;;;;;;;1007.42;902.85;;;5.30;99.90;;;;;;5063966;28;20048;-82
2023/12/23 09:46:43;;;;;;;984.50;885.05;;;5.30;99.90;;;;;;5064543;28;20110;-82
2023/12/23 09:49:09;;;;;;;945.97;867.45;;;5.30;99.90;;;;;;5063232;28;20032;-82
2023/12/23 09:51:35;;;;;;;962.28;873.53;;;6.40;99.90;;;;;;5064876;28;20108;-82
2023/12/23 09:54:04;;;;;;;944.55;863.25;;;5.30;99.90;;;;;;5066012;28;20104;-82
2023/12/23 09:56:30;;;;;;;943.38;859.83;;;5.30;99.90;;;;;;5065596;28;20100;-82
2023/12/23 09:58:56;;;;;;;1015.00;913.50;;;6.20;99.90;;;;;;5065930;28;20048;-81
2023/12/23 10:01:22;;;;;;;981.45;885.60;;;5.70;99.90;;;;;;5065174;28;20036;-82
2023/12/23 10:03:51;;;;;;;985.97;891.55;;;6.30;99.90;;;;;;5064646;28;20043;-82
2023/12/23 10:06:18;;;;;;;984.03;890.20;;;5.30;99.90;;;;;;5064995;28;20037;-82
2023/12/23 10:08:45;;;;;;;958.55;875.22;;;5.30;99.90;;;;;;5065604;28;20419;-82
2023/12/23 10:11:10;;;;;;;954.50;869.22;;;6.20;99.90;;;;;;5058639;28;20032;-82
2023/12/23 10:13:36;;;;;;;976.30;884.33;;;5.90;99.90;;;;;;5065178;28;20455;-82
2023/12/23 10:16:03;;;;;;;957.30;869.22;;;5.30;99.90;;;;;;5068345;28;20040;-82
2023/12/23 10:18:30;;;;;;;995.40;900.55;;;5.30;99.90;;;;;;5086233;28;20040;-82
2023/12/23 10:20:57;;;;;;;962.55;874.90;;;5.40;99.90;;;;;;5069868;28;20043;-82
2023/12/23 10:23:22;;;;;;;962.25;877.38;;;5.30;99.90;;;;;;5068704;28;20111;-83
2023/12/23 10:25:50;;;;;;;942.17;864.25;;;5.30;99.90;;;;;;5069528;28;20048;-82
2023/12/23 10:28:19;;;;;;;978.92;888.72;;;5.40;99.90;;;;;;5069942;28;20044;-82
2023/12/23 10:30:50;;;;;;;975.45;884.45;;;5.30;99.90;;;;;;5068870;28;20067;-84
2023/12/23 10:33:17;;;;;;;969.10;880.47;;;6.00;99.90;;;;;;5070074;28;20066;-83
2023/12/23 10:35:47;;;;;;;968.30;883.38;;;5.40;99.90;;;;;;5071426;28;20039;-83
2023/12/23 10:38:20;;;;;;;972.53;883.75;;;5.70;99.90;;;;;;5071096;28;20043;-83
2023/12/23 10:41:03;;;;;;;959.60;882.30;;;6.20;99.90;;;;;;5069325;28;20098;-83
2023/12/23 10:43:29;;;;;;;1037.93;930.75;;;5.40;99.90;;;;;;5069892;28;20097;-84
2023/12/23 10:45:57;;;;;;;977.72;889.80;;;5.10;99.90;;;;;;5066618;28;20075;-83
2023/12/23 10:48:25;;;;;;;991.88;897.25;;;5.40;99.90;;;;;;5070466;28;20067;-83
2023/12/23 10:50:52;;;;;;;976.65;891.28;;;5.40;99.90;;;;;;5066151;28;20060;-83
2023/12/23 10:53:18;;;;;;;1009.28;909.50;;;5.50;99.90;;;;;;5060391;28;20060;-83
2023/12/23 10:55:46;;;;;;;1018.60;913.10;;;6.40;99.90;;;;;;5070097;28;20044;-82
2023/12/23 10:58:13;;;;;;;1042.50;933.50;;;5.50;99.90;;;;;;5067012;28;20041;-83
2023/12/23 11:00:39;;;;;;;1034.47;926.47;;;5.50;99.90;;;;;;5082191;28;20036;-83
2023/12/23 11:03:07;;;;;;;976.17;886.83;;;5.60;99.90;;;;;;5089577;28;20041;-83
2023/12/23 11:05:36;;;;;;;964.17;877.78;;;5.50;99.90;;;;;;5065448;28;20041;-83
2023/12/23 11:08:05;;;;;;;950.85;867.22;;;6.50;99.90;;;;;;5068434;28;20151;-83
2023/12/23 11:10:31;;;;;;;1016.10;914.80;;;5.60;99.90;;;;;;5069555;28;20054;-83
2023/12/23 11:12:58;;;;;;;981.13;895.58;;;5.70;99.90;;;;;;5068822;28;20048;-83
2023/12/23 11:15:24;;;;;;;999.22;901.40;;;5.50;99.90;;;;;;5069283;28;20039;-83
2023/12/23 11:17:50;;;;;;;965.65;881.58;;;6.30;99.90;;;;;;5069484;28;20746;-82
2023/12/23 11:20:42;;;;;;;982.28;892.35;;;5.90;99.90;;;;;;5068154;28;20132;-83
2023/12/23 11:23:26;;;;;;;974.95;887.22;;;5.60;99.90;;;;;;5060744;28;20584;-83
2023/12/23 11:25:54;;;;;;;1017.80;915.58;;;6.70;99.90;;;;;;5082322;28;20045;-83
2023/12/23 11:28:20;;;;;;;1048.50;934.75;;;5.60;99.90;;;;;;5064723;28;20044;-84
2023/12/23 11:30:56;;;;;;;952.30;872.00;;;6.70;99.90;;;;;;5070299;28;20096;-84
2023/12/23 11:33:23;;;;;;;974.60;885.13;;;5.70;99.90;;;;;;5058967;28;20043;-83
2023/12/23 11:35:53;;;;;;;1037.70;923.00;;;5.70;99.90;;;;;;5069331;28;20052;-84
2023/12/23 11:38:25;;;;;;;971.88;885.40;;;6.40;99.90;;;;;;5059279;28;20035;-84
2023/12/23 11:40:52;;;;;;;1059.18;935.38;;;6.90;99.90;;;;;;5064496;28;20040;-84
2023/12/23 11:43:18;;;;;;;1003.50;904.20;;;5.60;99.90;;;;;;5081619;28;20071;-84
2023/12/23 11:45:44;;;;;;;988.13;893.63;;;5.70;99.90;;;;;;5068582;28;20044;-84
2023/12/23 11:48:10;;;;;;;987.67;889.78;;;6.10;99.90;;;;;;5068316;28;20075;-84
2023/12/23 11:50:36;;;;;;;977.55;888.47;;;5.70;99.90;;;;;;5067654;28;20036;-84
2023/12/23 11:53:02;;;;;;;1000.30;906.67;;;5.70;99.90;;;;;;5068085;28;20086;-84
2023/12/23 11:55:28;;;;;;;991.40;898.53;;;6.30;99.90;;;;;;5067733;28;20039;-84
2023/12/23 11:57:54;;;;;;;981.75;889.78;;;6.80;99.90;;;;;;5068243;28;20035;-84
2023/12/23 12:00:22;;;;;;;998.72;901.00;;;6.90;99.90;;;;;;5068626;28;20047;-84
2023/12/23 12:02:48;;;;;;;953.65;869.63;;;6.00;99.90;;;;;;5060489;28;20044;-84
2023/12/23 12:05:14;;;;;;;958.78;876.95;;;6.50;99.90;;;;;;5068606;28;20409;-84
2023/12/23 12:07:40;;;;;;;996.58;896.00;;;6.90;99.90;;;;;;5068711;28;20115;-84
2023/12/23 12:10:07;;;;;;;948.15;865.50;;;5.80;99.90;;;;;;5085546;28;20063;-85